sensor_id;sensor_type;location;lat;lon;timestamp;temperature;humidity
11762;DHT22;5938;47.098;15.474;2023-07-20T00:01:25;17.90;99.90
11762;DHT22;5938;47.098;15.474;2023-07-20T00:05:32;17.90;99.90
11762;DHT22;5938;47.098;15.474;2023-07-20T00:09:36;18.00;99.90
11762;DHT22;5938;47.098;15.474;2023-07-20T00:13:42;18.00;99.90
11762;DHT22;5938;47.098;15.474;2023-07-20T00:17:45;17.90;99.90
11762;DHT22;5938;47.098;15.474;2023-07-20T00:21:49;18.10;99.90
11762;DHT22;5938;47.098;15.474;2023-07-20T00:25:53;18.00;99.90
11762;DHT22;5938;47.098;15.474;2023-07-20T00:29:59;17.80;99.90
11762;DHT22;5938;47.098;15.474;2023-07-20T00:34:05;17.70;99.90
11762;DHT22;5938;47.098;15.474;2023-07-20T00:38:10;17.70;99.90
11762;DHT22;5938;47.098;15.474;2023-07-20T00:42:16;17.60;99.90
11762;DHT22;5938;47.098;15.474;2023-07-20T00:46:22;17.50;99.90
11762;DHT22;5938;47.098;15.474;2023-07-20T00:50:26;17.50;99.90
11762;DHT22;5938;47.098;15.474;2023-07-20T00:54:34;17.60;99.90
11762;DHT22;5938;47.098;15.474;2023-07-20T00:58:38;17.70;99.90
11762;DHT22;5938;47.098;15.474;2023-07-20T01:02:43;17.70;99.90
11762;DHT22;5938;47.098;15.474;2023-07-20T01:06:56;17.70;99.90
11762;DHT22;5938;47.098;15.474;2023-07-20T01:11:10;17.70;99.90
11762;DHT22;5938;47.098;15.474;2023-07-20T01:15:16;17.60;99.90
11762;DHT22;5938;47.098;15.474;2023-07-20T01:19:21;17.60;99.90
11762;DHT22;5938;47.098;15.474;2023-07-20T01:23:47;17.60;99.90
11762;DHT22;5938;47.098;15.474;2023-07-20T01:28:18;17.50;99.90
11762;DHT22;5938;47.098;15.474;2023-07-20T01:32:27;17.50;99.90
11762;DHT22;5938;47.098;15.474;2023-07-20T01:36:35;17.50;99.90
11762;DHT22;5938;47.098;15.474;2023-07-20T01:40:40;17.60;99.90
11762;DHT22;5938;47.098;15.474;2023-07-20T01:44:44;17.50;99.90
11762;DHT22;5938;47.098;15.474;2023-07-20T01:48:49;17.60;99.90
11762;DHT22;5938;47.098;15.474;2023-07-20T01:52:58;17.60;99.90
11762;DHT22;5938;47.098;15.474;2023-07-20T01:57:04;17.60;99.90
11762;DHT22;5938;47.098;15.474;2023-07-20T02:01:09;17.60;99.90
11762;DHT22;5938;47.098;15.474;2023-07-20T02:05:16;17.50;99.90
11762;DHT22;5938;47.098;15.474;2023-07-20T02:09:20;17.50;99.90
11762;DHT22;5938;47.098;15.474;2023-07-20T02:13:24;17.50;99.90
11762;DHT22;5938;47.098;15.474;2023-07-20T02:17:28;17.40;99.90
11762;DHT22;5938;47.098;15.474;2023-07-20T02:21:33;17.50;99.90
11762;DHT22;5938;47.098;15.474;2023-07-20T02:25:37;17.50;99.90
11762;DHT22;5938;47.098;15.474;2023-07-20T02:29:41;17.30;99.90
11762;DHT22;5938;47.098;15.474;2023-07-20T02:33:45;17.30;99.90
11762;DHT22;5938;47.098;15.474;2023-07-20T02:37:50;17.20;99.90
11762;DHT22;5938;47.098;15.474;2023-07-20T02:41:54;17.20;99.90
11762;DHT22;5938;47.098;15.474;2023-07-20T02:45:58;17.20;99.90
11762;DHT22;5938;47.098;15.474;2023-07-20T02:50:03;17.10;99.90
11762;DHT22;5938;47.098;15.474;2023-07-20T02:54:08;17.10;99.90
11762;DHT22;5938;47.098;15.474;2023-07-20T02:58:12;17.10;99.90
11762;DHT22;5938;47.098;15.474;2023-07-20T03:02:15;17.10;99.90
11762;DHT22;5938;47.098;15.474;2023-07-20T03:06:25;17.10;99.90
11762;DHT22;5938;47.098;15.474;2023-07-20T03:10:30;17.10;99.90
11762;DHT22;5938;47.098;15.474;2023-07-20T03:14:33;17.10;99.90
11762;DHT22;5938;47.098;15.474;2023-07-20T03:18:37;17.10;99.90
11762;DHT22;5938;47.098;15.474;2023-07-20T03:22:42;17.10;99.90
11762;DHT22;5938;47.098;15.474;2023-07-20T03:26:47;17.10;99.90
11762;DHT22;5938;47.098;15.474;2023-07-20T03:30:53;17.10;99.90
11762;DHT22;5938;47.098;15.474;2023-07-20T03:34:58;17.10;99.90
11762;DHT22;5938;47.098;15.474;2023-07-20T03:39:02;17.10;99.90
11762;DHT22;5938;47.098;15.474;2023-07-20T03:43:07;17.10;99.90
11762;DHT22;5938;47.098;15.474;2023-07-20T03:47:11;17.20;99.90
11762;DHT22;5938;47.098;15.474;2023-07-20T03:51:14;17.10;99.90
11762;DHT22;5938;47.098;15.474;2023-07-20T03:55:17;17.10;99.90
11762;DHT22;5938;47.098;15.474;2023-07-20T03:59:25;17.10;99.90
11762;DHT22;5938;47.098;15.474;2023-07-20T04:03:28;17.20;99.90
11762;DHT22;5938;47.098;15.474;2023-07-20T04:07:32;17.30;99.90
11762;DHT22;5938;47.098;15.474;2023-07-20T04:11:36;17.40;99.90
11762;DHT22;5938;47.098;15.474;2023-07-20T04:15:41;17.50;99.90
11762;DHT22;5938;47.098;15.474;2023-07-20T04:19:45;17.50;99.90
11762;DHT22;5938;47.098;15.474;2023-07-20T04:23:48;17.50;99.90
11762;DHT22;5938;47.098;15.474;2023-07-20T04:27:52;17.50;99.90
11762;DHT22;5938;47.098;15.474;2023-07-20T04:31:57;17.70;99.90
11762;DHT22;5938;47.098;15.474;2023-07-20T04:36:00;17.90;99.90
11762;DHT22;5938;47.098;15.474;2023-07-20T04:40:05;18.20;99.90
11762;DHT22;5938;47.098;15.474;2023-07-20T04:44:09;18.20;99.90
11762;DHT22;5938;47.098;15.474;2023-07-20T04:48:15;18.30;99.90
11762;DHT22;5938;47.098;15.474;2023-07-20T04:52:19;18.40;99.90
11762;DHT22;5938;47.098;15.474;2023-07-20T04:56:31;18.40;99.90
11762;DHT22;5938;47.098;15.474;2023-07-20T05:00:37;18.40;99.90
11762;DHT22;5938;47.098;15.474;2023-07-20T05:04:42;18.50;99.90
11762;DHT22;5938;47.098;15.474;2023-07-20T05:08:46;18.50;99.90
11762;DHT22;5938;47.098;15.474;2023-07-20T05:12:49;18.80;99.90
11762;DHT22;5938;47.098;15.474;2023-07-20T05:16:53;18.90;99.90
11762;DHT22;5938;47.098;15.474;2023-07-20T05:20:58;19.10;99.90
11762;DHT22;5938;47.098;15.474;2023-07-20T05:25:01;19.30;99.90
11762;DHT22;5938;47.098;15.474;2023-07-20T05:29:05;19.50;99.90
11762;DHT22;5938;47.098;15.474;2023-07-20T05:33:09;19.70;99.90
11762;DHT22;5938;47.098;15.474;2023-07-20T05:37:14;19.90;99.90
11762;DHT22;5938;47.098;15.474;2023-07-20T05:41:17;19.80;99.90
11762;DHT22;5938;47.098;15.474;2023-07-20T05:45:21;19.90;99.90
11762;DHT22;5938;47.098;15.474;2023-07-20T05:49:25;19.90;99.90
11762;DHT22;5938;47.098;15.474;2023-07-20T05:53:30;20.20;99.90
11762;DHT22;5938;47.098;15.474;2023-07-20T05:57:34;20.40;99.90
11762;DHT22;5938;47.098;15.474;2023-07-20T06:01:38;20.70;99.90
11762;DHT22;5938;47.098;15.474;2023-07-20T06:05:42;21.00;99.90
11762;DHT22;5938;47.098;15.474;2023-07-20T06:09:47;21.20;99.90
11762;DHT22;5938;47.098;15.474;2023-07-20T06:13:51;21.40;99.90
11762;DHT22;5938;47.098;15.474;2023-07-20T06:17:55;21.50;99.90
11762;DHT22;5938;47.098;15.474;2023-07-20T06:22:00;21.40;99.90
11762;DHT22;5938;47.098;15.474;2023-07-20T06:26:06;21.50;99.90
11762;DHT22;5938;47.098;15.474;2023-07-20T06:30:11;21.70;99.90
11762;DHT22;5938;47.098;15.474;2023-07-20T06:34:17;21.80;99.90
11762;DHT22;5938;47.098;15.474;2023-07-20T06:38:24;22.00;99.90
11762;DHT22;5938;47.098;15.474;2023-07-20T06:42:32;22.20;99.90
11762;DHT22;5938;47.098;15.474;2023-07-20T06:46:39;22.50;99.90
11762;DHT22;5938;47.098;15.474;2023-07-20T06:50:43;22.90;99.90
11762;DHT22;5938;47.098;15.474;2023-07-20T06:54:46;23.20;99.90
11762;DHT22;5938;47.098;15.474;2023-07-20T06:58:51;23.30;99.90
11762;DHT22;5938;47.098;15.474;2023-07-20T07:02:55;23.30;99.90
11762;DHT22;5938;47.098;15.474;2023-07-20T07:06:59;22.90;99.90
11762;DHT22;5938;47.098;15.474;2023-07-20T07:11:02;23.00;99.90
11762;DHT22;5938;47.098;15.474;2023-07-20T07:15:09;23.10;99.90
11762;DHT22;5938;47.098;15.474;2023-07-20T07:19:13;23.00;99.90
11762;DHT22;5938;47.098;15.474;2023-07-20T07:23:16;23.00;99.90
11762;DHT22;5938;47.098;15.474;2023-07-20T07:27:20;23.30;99.90
11762;DHT22;5938;47.098;15.474;2023-07-20T07:31:28;23.60;99.90
11762;DHT22;5938;47.098;15.474;2023-07-20T07:35:31;24.00;99.90
11762;DHT22;5938;47.098;15.474;2023-07-20T07:39:35;24.20;99.90
11762;DHT22;5938;47.098;15.474;2023-07-20T07:43:38;24.10;99.90
11762;DHT22;5938;47.098;15.474;2023-07-20T07:47:43;24.20;99.90
11762;DHT22;5938;47.098;15.474;2023-07-20T07:51:47;24.00;99.60
11762;DHT22;5938;47.098;15.474;2023-07-20T07:55:52;24.00;99.90
11762;DHT22;5938;47.098;15.474;2023-07-20T07:59:55;23.90;99.90
11762;DHT22;5938;47.098;15.474;2023-07-20T08:04:06;24.30;99.40
11762;DHT22;5938;47.098;15.474;2023-07-20T08:08:10;24.60;99.90
11762;DHT22;5938;47.098;15.474;2023-07-20T08:12:14;24.50;99.50
11762;DHT22;5938;47.098;15.474;2023-07-20T08:16:19;24.70;98.90
11762;DHT22;5938;47.098;15.474;2023-07-20T08:20:25;25.00;97.30
11762;DHT22;5938;47.098;15.474;2023-07-20T08:24:29;25.20;96.20
11762;DHT22;5938;47.098;15.474;2023-07-20T08:28:33;25.30;95.10
11762;DHT22;5938;47.098;15.474;2023-07-20T08:32:37;25.60;94.80
11762;DHT22;5938;47.098;15.474;2023-07-20T08:36:42;25.50;92.60
11762;DHT22;5938;47.098;15.474;2023-07-20T08:40:46;25.40;92.40
11762;DHT22;5938;47.098;15.474;2023-07-20T08:44:50;25.40;93.10
11762;DHT22;5938;47.098;15.474;2023-07-20T08:48:56;25.50;91.90
11762;DHT22;5938;47.098;15.474;2023-07-20T08:53:02;26.40;91.70
11762;DHT22;5938;47.098;15.474;2023-07-20T08:57:06;27.30;88.90
11762;DHT22;5938;47.098;15.474;2023-07-20T09:01:11;29.40;88.00
11762;DHT22;5938;47.098;15.474;2023-07-20T09:05:15;31.40;76.60
11762;DHT22;5938;47.098;15.474;2023-07-20T09:09:21;31.80;75.20
11762;DHT22;5938;47.098;15.474;2023-07-20T09:13:27;32.60;71.50
11762;DHT22;5938;47.098;15.474;2023-07-20T09:17:34;32.80;73.80
11762;DHT22;5938;47.098;15.474;2023-07-20T09:21:38;32.90;70.40
11762;DHT22;5938;47.098;15.474;2023-07-20T09:25:43;34.40;67.90
11762;DHT22;5938;47.098;15.474;2023-07-20T09:29:48;33.20;69.70
11762;DHT22;5938;47.098;15.474;2023-07-20T09:33:53;33.20;70.60
11762;DHT22;5938;47.098;15.474;2023-07-20T09:38:01;33.70;65.80
11762;DHT22;5938;47.098;15.474;2023-07-20T09:42:09;34.10;68.00
11762;DHT22;5938;47.098;15.474;2023-07-20T09:46:16;33.30;65.50
11762;DHT22;5938;47.098;15.474;2023-07-20T09:50:25;33.70;66.30
11762;DHT22;5938;47.098;15.474;2023-07-20T09:54:29;33.50;65.20
11762;DHT22;5938;47.098;15.474;2023-07-20T09:58:34;34.10;65.60
11762;DHT22;5938;47.098;15.474;2023-07-20T10:02:42;33.40;66.50
11762;DHT22;5938;47.098;15.474;2023-07-20T10:06:47;31.90;71.70
11762;DHT22;5938;47.098;15.474;2023-07-20T10:10:52;31.70;72.10
11762;DHT22;5938;47.098;15.474;2023-07-20T10:15:10;31.20;78.10
11762;DHT22;5938;47.098;15.474;2023-07-20T10:19:22;31.60;79.10
11762;DHT22;5938;47.098;15.474;2023-07-20T10:23:29;33.20;77.00
11762;DHT22;5938;47.098;15.474;2023-07-20T10:27:39;32.80;74.60
11762;DHT22;5938;47.098;15.474;2023-07-20T10:31:44;31.30;76.60
11762;DHT22;5938;47.098;15.474;2023-07-20T10:35:52;30.40;78.20
11762;DHT22;5938;47.098;15.474;2023-07-20T10:39:56;29.40;85.90
11762;DHT22;5938;47.098;15.474;2023-07-20T10:44:01;29.10;86.90
11762;DHT22;5938;47.098;15.474;2023-07-20T10:48:14;28.80;89.10
11762;DHT22;5938;47.098;15.474;2023-07-20T10:52:18;28.90;89.70
11762;DHT22;5938;47.098;15.474;2023-07-20T10:56:23;30.00;87.20
11762;DHT22;5938;47.098;15.474;2023-07-20T11:00:30;29.90;84.60
11762;DHT22;5938;47.098;15.474;2023-07-20T11:04:43;29.40;88.00
11762;DHT22;5938;47.098;15.474;2023-07-20T11:08:46;29.20;87.70
11762;DHT22;5938;47.098;15.474;2023-07-20T11:13:17;31.00;83.20
11762;DHT22;5938;47.098;15.474;2023-07-20T11:17:29;32.80;78.10
11762;DHT22;5938;47.098;15.474;2023-07-20T11:21:37;33.20;74.50
11762;DHT22;5938;47.098;15.474;2023-07-20T11:26:01;31.60;74.50
11762;DHT22;5938;47.098;15.474;2023-07-20T11:30:15;30.80;79.20
11762;DHT22;5938;47.098;15.474;2023-07-20T11:34:20;31.80;75.10
11762;DHT22;5938;47.098;15.474;2023-07-20T11:38:25;31.70;78.40
11762;DHT22;5938;47.098;15.474;2023-07-20T11:42:29;32.00;74.80
11762;DHT22;5938;47.098;15.474;2023-07-20T11:46:36;32.00;75.30
11762;DHT22;5938;47.098;15.474;2023-07-20T11:50:40;32.00;75.30
11762;DHT22;5938;47.098;15.474;2023-07-20T11:54:45;31.70;76.00
11762;DHT22;5938;47.098;15.474;2023-07-20T11:58:53;31.70;74.20
11762;DHT22;5938;47.098;15.474;2023-07-20T12:02:57;32.10;73.80
11762;DHT22;5938;47.098;15.474;2023-07-20T12:07:01;31.20;74.70
11762;DHT22;5938;47.098;15.474;2023-07-20T12:11:06;31.10;77.60
11762;DHT22;5938;47.098;15.474;2023-07-20T12:15:16;30.10;80.20
11762;DHT22;5938;47.098;15.474;2023-07-20T12:19:20;28.70;86.00
11762;DHT22;5938;47.098;15.474;2023-07-20T12:23:25;27.90;86.20
11762;DHT22;5938;47.098;15.474;2023-07-20T12:27:33;27.30;88.00
11762;DHT22;5938;47.098;15.474;2023-07-20T12:31:38;26.90;88.70
11762;DHT22;5938;47.098;15.474;2023-07-20T12:35:42;26.40;93.70
11762;DHT22;5938;47.098;15.474;2023-07-20T12:39:46;26.10;96.90
11762;DHT22;5938;47.098;15.474;2023-07-20T12:43:51;25.10;99.00
11762;DHT22;5938;47.098;15.474;2023-07-20T12:47:55;24.50;97.60
11762;DHT22;5938;47.098;15.474;2023-07-20T12:51:59;24.10;97.60
11762;DHT22;5938;47.098;15.474;2023-07-20T12:56:03;23.80;97.00
11762;DHT22;5938;47.098;15.474;2023-07-20T13:00:13;23.30;99.70
11762;DHT22;5938;47.098;15.474;2023-07-20T13:04:17;22.80;99.90
11762;DHT22;5938;47.098;15.474;2023-07-20T13:08:20;21.40;99.90
11762;DHT22;5938;47.098;15.474;2023-07-20T13:12:28;20.90;99.90
11762;DHT22;5938;47.098;15.474;2023-07-20T13:16:34;20.70;99.90
11762;DHT22;5938;47.098;15.474;2023-07-20T13:20:38;20.80;99.90
11762;DHT22;5938;47.098;15.474;2023-07-20T13:24:45;21.20;99.90
11762;DHT22;5938;47.098;15.474;2023-07-20T13:28:51;21.80;99.90
11762;DHT22;5938;47.098;15.474;2023-07-20T13:32:58;21.50;99.90
11762;DHT22;5938;47.098;15.474;2023-07-20T13:37:08;22.80;99.90
11762;DHT22;5938;47.098;15.474;2023-07-20T13:41:14;23.70;99.90
11762;DHT22;5938;47.098;15.474;2023-07-20T13:45:20;23.90;99.90
11762;DHT22;5938;47.098;15.474;2023-07-20T13:49:27;23.70;99.90
11762;DHT22;5938;47.098;15.474;2023-07-20T13:53:37;23.90;99.90
11762;DHT22;5938;47.098;15.474;2023-07-20T13:57:44;24.40;99.90
11762;DHT22;5938;47.098;15.474;2023-07-20T14:01:48;24.60;99.90
11762;DHT22;5938;47.098;15.474;2023-07-20T14:05:53;27.40;99.90
11762;DHT22;5938;47.098;15.474;2023-07-20T14:10:00;29.20;99.60
11762;DHT22;5938;47.098;15.474;2023-07-20T14:14:06;32.70;94.40
11762;DHT22;5938;47.098;15.474;2023-07-20T14:18:10;32.10;92.60
11762;DHT22;5938;47.098;15.474;2023-07-20T14:22:17;31.50;91.90
11762;DHT22;5938;47.098;15.474;2023-07-20T14:26:21;28.80;95.60
11762;DHT22;5938;47.098;15.474;2023-07-20T14:30:25;29.20;96.40
11762;DHT22;5938;47.098;15.474;2023-07-20T14:34:28;29.60;94.50
11762;DHT22;5938;47.098;15.474;2023-07-20T14:38:36;30.60;93.90
11762;DHT22;5938;47.098;15.474;2023-07-20T14:42:39;33.40;91.60
11762;DHT22;5938;47.098;15.474;2023-07-20T14:46:43;36.90;84.60
11762;DHT22;5938;47.098;15.474;2023-07-20T14:51:03;39.40;78.50
11762;DHT22;5938;47.098;15.474;2023-07-20T14:55:08;40.70;73.40
11762;DHT22;5938;47.098;15.474;2023-07-20T14:59:12;40.70;72.00
11762;DHT22;5938;47.098;15.474;2023-07-20T15:03:15;39.90;67.40
11762;DHT22;5938;47.098;15.474;2023-07-20T15:07:20;36.00;75.80
11762;DHT22;5938;47.098;15.474;2023-07-20T15:11:26;33.30;82.80
11762;DHT22;5938;47.098;15.474;2023-07-20T15:15:29;30.90;88.10
11762;DHT22;5938;47.098;15.474;2023-07-20T15:19:33;29.50;92.10
11762;DHT22;5938;47.098;15.474;2023-07-20T15:23:38;28.70;93.80
11762;DHT22;5938;47.098;15.474;2023-07-20T15:27:43;28.10;95.20
11762;DHT22;5938;47.098;15.474;2023-07-20T15:31:51;27.70;96.50
11762;DHT22;5938;47.098;15.474;2023-07-20T15:35:58;27.30;97.30
11762;DHT22;5938;47.098;15.474;2023-07-20T15:40:01;26.70;98.10
11762;DHT22;5938;47.098;15.474;2023-07-20T15:44:08;26.70;98.30
11762;DHT22;5938;47.098;15.474;2023-07-20T15:48:11;26.90;98.10
11762;DHT22;5938;47.098;15.474;2023-07-20T15:52:15;27.00;97.40
11762;DHT22;5938;47.098;15.474;2023-07-20T15:56:19;27.80;94.70
11762;DHT22;5938;47.098;15.474;2023-07-20T16:00:25;28.30;96.20
11762;DHT22;5938;47.098;15.474;2023-07-20T16:04:28;27.50;95.60
11762;DHT22;5938;47.098;15.474;2023-07-20T16:08:32;26.70;97.10
11762;DHT22;5938;47.098;15.474;2023-07-20T16:12:36;26.20;97.90
11762;DHT22;5938;47.098;15.474;2023-07-20T16:16:44;25.90;99.90
11762;DHT22;5938;47.098;15.474;2023-07-20T16:20:47;25.40;99.90
11762;DHT22;5938;47.098;15.474;2023-07-20T16:24:51;25.10;99.90
11762;DHT22;5938;47.098;15.474;2023-07-20T16:28:54;25.00;99.90
11762;DHT22;5938;47.098;15.474;2023-07-20T16:33:04;25.00;99.90
11762;DHT22;5938;47.098;15.474;2023-07-20T16:37:08;24.80;99.90
11762;DHT22;5938;47.098;15.474;2023-07-20T16:41:14;24.70;99.90
11762;DHT22;5938;47.098;15.474;2023-07-20T16:45:38;24.70;99.90
11762;DHT22;5938;47.098;15.474;2023-07-20T16:49:43;24.90;99.90
11762;DHT22;5938;47.098;15.474;2023-07-20T16:53:46;24.60;99.90
11762;DHT22;5938;47.098;15.474;2023-07-20T16:57:50;24.70;99.90
11762;DHT22;5938;47.098;15.474;2023-07-20T17:01:53;24.70;99.90
11762;DHT22;5938;47.098;15.474;2023-07-20T17:05:59;24.80;99.90
11762;DHT22;5938;47.098;15.474;2023-07-20T17:10:03;24.90;99.90
11762;DHT22;5938;47.098;15.474;2023-07-20T17:14:09;24.90;99.90
11762;DHT22;5938;47.098;15.474;2023-07-20T17:18:13;24.60;99.90
11762;DHT22;5938;47.098;15.474;2023-07-20T17:22:18;24.20;99.90
11762;DHT22;5938;47.098;15.474;2023-07-20T17:26:21;23.70;99.90
11762;DHT22;5938;47.098;15.474;2023-07-20T17:30:28;23.50;99.90
11762;DHT22;5938;47.098;15.474;2023-07-20T17:34:31;23.30;99.90
11762;DHT22;5938;47.098;15.474;2023-07-20T17:38:36;23.10;99.90
11762;DHT22;5938;47.098;15.474;2023-07-20T17:42:44;23.00;99.90
11762;DHT22;5938;47.098;15.474;2023-07-20T17:46:52;23.00;99.90
11762;DHT22;5938;47.098;15.474;2023-07-20T17:51:00;23.00;99.90
11762;DHT22;5938;47.098;15.474;2023-07-20T17:55:10;23.00;99.90
11762;DHT22;5938;47.098;15.474;2023-07-20T17:59:16;22.70;99.90
11762;DHT22;5938;47.098;15.474;2023-07-20T18:03:23;22.50;99.90
11762;DHT22;5938;47.098;15.474;2023-07-20T18:07:29;22.40;99.90
11762;DHT22;5938;47.098;15.474;2023-07-20T18:11:36;22.20;99.90
11762;DHT22;5938;47.098;15.474;2023-07-20T18:15:43;22.10;99.90
11762;DHT22;5938;47.098;15.474;2023-07-20T18:19:50;21.90;99.90
11762;DHT22;5938;47.098;15.474;2023-07-20T18:23:56;21.70;99.90
11762;DHT22;5938;47.098;15.474;2023-07-20T18:28:07;21.50;99.90
11762;DHT22;5938;47.098;15.474;2023-07-20T18:32:13;21.30;99.90
11762;DHT22;5938;47.098;15.474;2023-07-20T18:36:19;21.10;99.90
11762;DHT22;5938;47.098;15.474;2023-07-20T18:40:25;20.80;99.90
11762;DHT22;5938;47.098;15.474;2023-07-20T18:44:33;20.70;99.90
11762;DHT22;5938;47.098;15.474;2023-07-20T18:48:38;20.60;99.90
11762;DHT22;5938;47.098;15.474;2023-07-20T18:52:44;20.50;99.90
11762;DHT22;5938;47.098;15.474;2023-07-20T18:56:50;20.40;99.90
11762;DHT22;5938;47.098;15.474;2023-07-20T19:01:00;20.30;99.90
11762;DHT22;5938;47.098;15.474;2023-07-20T19:05:07;20.30;99.90
11762;DHT22;5938;47.098;15.474;2023-07-20T19:09:13;20.40;99.90
11762;DHT22;5938;47.098;15.474;2023-07-20T19:13:20;20.20;99.90
11762;DHT22;5938;47.098;15.474;2023-07-20T19:17:30;20.10;99.90
11762;DHT22;5938;47.098;15.474;2023-07-20T19:21:39;20.00;99.90
11762;DHT22;5938;47.098;15.474;2023-07-20T19:25:57;19.90;99.90
11762;DHT22;5938;47.098;15.474;2023-07-20T19:30:09;19.70;99.90
11762;DHT22;5938;47.098;15.474;2023-07-20T19:34:20;19.60;99.90
11762;DHT22;5938;47.098;15.474;2023-07-20T19:38:27;19.50;99.90
11762;DHT22;5938;47.098;15.474;2023-07-20T19:42:34;19.40;99.90
11762;DHT22;5938;47.098;15.474;2023-07-20T19:46:41;19.30;99.90
11762;DHT22;5938;47.098;15.474;2023-07-20T19:50:59;19.30;99.90
11762;DHT22;5938;47.098;15.474;2023-07-20T19:55:17;19.30;99.90
11762;DHT22;5938;47.098;15.474;2023-07-20T19:59:23;19.20;99.90
11762;DHT22;5938;47.098;15.474;2023-07-20T20:03:35;19.20;99.90
11762;DHT22;5938;47.098;15.474;2023-07-20T20:07:46;19.10;99.90
11762;DHT22;5938;47.098;15.474;2023-07-20T20:12:01;19.10;99.90
11762;DHT22;5938;47.098;15.474;2023-07-20T20:16:10;19.10;99.90
11762;DHT22;5938;47.098;15.474;2023-07-20T20:20:43;19.10;99.90
11762;DHT22;5938;47.098;15.474;2023-07-20T20:24:53;19.10;99.90
11762;DHT22;5938;47.098;15.474;2023-07-20T20:29:01;19.10;99.90
11762;DHT22;5938;47.098;15.474;2023-07-20T20:33:09;19.10;99.90
11762;DHT22;5938;47.098;15.474;2023-07-20T20:37:18;19.00;99.90
11762;DHT22;5938;47.098;15.474;2023-07-20T20:41:32;19.00;99.90
11762;DHT22;5938;47.098;15.474;2023-07-20T20:46:02;18.80;99.90
11762;DHT22;5938;47.098;15.474;2023-07-20T20:50:14;18.80;99.90
11762;DHT22;5938;47.098;15.474;2023-07-20T20:54:25;18.70;99.90
11762;DHT22;5938;47.098;15.474;2023-07-20T20:58:34;18.60;99.90
11762;DHT22;5938;47.098;15.474;2023-07-20T21:02:45;18.60;99.90
11762;DHT22;5938;47.098;15.474;2023-07-20T21:06:52;18.50;99.90
11762;DHT22;5938;47.098;15.474;2023-07-20T21:10:57;18.40;99.90
11762;DHT22;5938;47.098;15.474;2023-07-20T21:15:03;18.30;99.90
11762;DHT22;5938;47.098;15.474;2023-07-20T21:19:08;18.20;99.90
11762;DHT22;5938;47.098;15.474;2023-07-20T21:23:12;18.10;99.90
11762;DHT22;5938;47.098;15.474;2023-07-20T21:27:16;18.00;99.90
11762;DHT22;5938;47.098;15.474;2023-07-20T21:31:22;17.90;99.90
11762;DHT22;5938;47.098;15.474;2023-07-20T21:35:25;17.80;99.90
11762;DHT22;5938;47.098;15.474;2023-07-20T21:39:29;17.70;99.90
11762;DHT22;5938;47.098;15.474;2023-07-20T21:43:38;17.60;99.90
11762;DHT22;5938;47.098;15.474;2023-07-20T21:47:43;17.50;99.90
11762;DHT22;5938;47.098;15.474;2023-07-20T21:51:47;17.40;99.90
11762;DHT22;5938;47.098;15.474;2023-07-20T21:55:50;17.40;99.90
11762;DHT22;5938;47.098;15.474;2023-07-20T21:59:54;17.30;99.90
11762;DHT22;5938;47.098;15.474;2023-07-20T22:03:59;17.20;99.90
11762;DHT22;5938;47.098;15.474;2023-07-20T22:08:03;17.20;99.90
11762;DHT22;5938;47.098;15.474;2023-07-20T22:12:07;17.10;99.90
11762;DHT22;5938;47.098;15.474;2023-07-20T22:16:12;17.10;99.90
11762;DHT22;5938;47.098;15.474;2023-07-20T22:20:18;17.00;99.90
11762;DHT22;5938;47.098;15.474;2023-07-20T22:24:23;17.00;99.90
11762;DHT22;5938;47.098;15.474;2023-07-20T22:28:26;17.00;99.90
11762;DHT22;5938;47.098;15.474;2023-07-20T22:32:30;16.90;99.90
11762;DHT22;5938;47.098;15.474;2023-07-20T22:36:35;16.90;99.90
11762;DHT22;5938;47.098;15.474;2023-07-20T22:40:39;16.90;99.90
11762;DHT22;5938;47.098;15.474;2023-07-20T22:44:42;17.00;99.90
11762;DHT22;5938;47.098;15.474;2023-07-20T22:48:46;16.90;99.90
11762;DHT22;5938;47.098;15.474;2023-07-20T22:52:52;16.90;99.90
11762;DHT22;5938;47.098;15.474;2023-07-20T22:56:56;16.90;99.90
11762;DHT22;5938;47.098;15.474;2023-07-20T23:01:22;16.90;99.90
11762;DHT22;5938;47.098;15.474;2023-07-20T23:05:29;16.90;99.90
11762;DHT22;5938;47.098;15.474;2023-07-20T23:09:35;17.00;99.90
11762;DHT22;5938;47.098;15.474;2023-07-20T23:13:39;17.00;99.90
11762;DHT22;5938;47.098;15.474;2023-07-20T23:17:43;17.10;99.90
11762;DHT22;5938;47.098;15.474;2023-07-20T23:21:50;17.10;99.90
11762;DHT22;5938;47.098;15.474;2023-07-20T23:25:55;17.20;99.90
11762;DHT22;5938;47.098;15.474;2023-07-20T23:29:59;17.20;99.90
11762;DHT22;5938;47.098;15.474;2023-07-20T23:34:03;17.30;99.90
11762;DHT22;5938;47.098;15.474;2023-07-20T23:38:08;17.40;99.90
11762;DHT22;5938;47.098;15.474;2023-07-20T23:42:14;17.40;99.90
11762;DHT22;5938;47.098;15.474;2023-07-20T23:46:18;17.50;99.90
11762;DHT22;5938;47.098;15.474;2023-07-20T23:50:26;17.40;99.90
11762;DHT22;5938;47.098;15.474;2023-07-20T23:54:29;17.40;99.90
11762;DHT22;5938;47.098;15.474;2023-07-20T23:58:35;17.40;99.90
